Time;durP1;ratioP1;P1;durP2;ratioP2;P2;SDS_P1;SDS_P2;PMS_P1;PMS_P2;Temp;Humidity;BMP_temperature;BMP_pressure;BME280_temperature;BME280_humidity;BME280_pressure;Samples;Min_cycle;Max_cycle;Signal;HPM_P1;HPM_P2
2022/06/21 00:00:55;;;;;;;3.07;1.43;;;;;;;23.70;56.96;98465.72;4825608;29;20245;-89
2022/06/21 00:03:24;;;;;;;2.43;1.20;;;;;;;23.74;55.94;98466.22;4825499;29;20178;-89
2022/06/21 00:05:51;;;;;;;2.53;1.30;;;;;;;23.77;55.11;98461.31;4825351;29;20212;-90
2022/06/21 00:08:23;;;;;;;2.80;1.33;;;;;;;23.69;55.92;98457.88;4825289;29;20197;-89
2022/06/21 00:10:50;;;;;;;2.53;1.60;;;;;;;23.64;56.65;98461.09;4825166;29;20246;-90
2022/06/21 00:13:25;;;;;;;2.80;1.30;;;;;;;23.59;57.16;98459.97;4825153;29;20194;-89
2022/06/21 00:15:54;;;;;;;2.03;1.10;;;;;;;23.52;56.86;98464.38;4808310;29;20178;-89
2022/06/21 00:18:22;;;;;;;3.73;1.47;;;;;;;23.56;56.66;98466.50;4808858;29;20173;-89
2022/06/21 00:20:49;;;;;;;2.80;1.50;;;;;;;23.55;56.47;98459.50;4825243;29;20181;-89
2022/06/21 00:23:19;;;;;;;4.97;1.60;;;;;;;23.48;56.86;98455.84;4808853;29;20386;-90
2022/06/21 00:25:46;;;;;;;2.50;1.47;;;;;;;23.56;56.22;98450.44;4809128;29;20194;-90
2022/06/21 00:28:13;;;;;;;3.57;1.40;;;;;;;23.50;57.03;98443.16;4808908;29;20213;-90
2022/06/21 00:30:42;;;;;;;5.40;1.43;;;;;;;23.50;56.49;98445.84;4823976;29;20177;-89
2022/06/21 00:33:11;;;;;;;2.20;1.30;;;;;;;23.39;56.39;98446.25;4824879;29;20249;-89
2022/06/21 00:35:39;;;;;;;5.47;1.63;;;;;;;23.40;56.57;98441.72;4824752;29;20185;-89
2022/06/21 00:38:05;;;;;;;3.73;1.83;;;;;;;23.39;56.62;98440.06;4824797;29;20737;-89
2022/06/21 00:40:32;;;;;;;2.03;1.23;;;;;;;23.29;57.17;98440.28;4824683;29;20237;-89
2022/06/21 00:43:14;;;;;;;3.53;1.40;;;;;;;23.18;57.26;98429.97;4817505;29;20543;-89
2022/06/21 00:45:43;;;;;;;3.23;1.53;;;;;;;23.10;58.14;98425.50;4824645;29;20169;-89
2022/06/21 00:48:32;;;;;;;5.50;1.80;;;;;;;23.06;57.58;98428.72;4824639;29;20568;-89
2022/06/21 00:51:05;;;;;;;3.27;1.60;;;;;;;23.04;57.92;98436.06;4825181;29;20601;-89
2022/06/21 00:53:36;;;;;;;5.50;1.77;;;;;;;22.98;58.11;98434.13;4812423;29;20717;-89
2022/06/21 00:56:21;;;;;;;3.53;1.60;;;;;;;22.99;57.69;98439.28;4824335;29;20281;-90
2022/06/21 00:58:47;;;;;;;3.67;1.20;;;;;;;22.84;57.90;98435.69;4807211;29;20179;-89
2022/06/21 01:01:26;;;;;;;3.70;1.67;;;;;;;22.75;57.76;98433.22;4806136;29;20206;-89
2022/06/21 01:03:56;;;;;;;4.83;2.00;;;;;;;22.63;58.36;98432.78;4791108;29;20186;-89
2022/06/21 01:06:41;;;;;;;6.37;1.97;;;;;;;22.60;58.32;98428.59;4815329;29;20193;-89
2022/06/21 01:09:21;;;;;;;7.07;2.13;;;;;;;22.51;58.93;98421.59;4822616;29;20196;-89
2022/06/21 01:12:02;;;;;;;3.87;2.10;;;;;;;22.50;59.26;98437.81;4806323;29;20609;-89
2022/06/21 01:14:32;;;;;;;3.50;2.00;;;;;;;22.46;59.60;98423.97;4806797;29;20217;-89
2022/06/21 01:16:59;;;;;;;5.30;2.10;;;;;;;22.42;60.32;98425.31;4813900;29;20260;-89
2022/06/21 01:19:36;;;;;;;4.57;2.40;;;;;;;22.47;60.08;98422.97;4824539;29;20182;-89
2022/06/21 01:22:27;;;;;;;4.23;2.13;;;;;;;22.36;60.06;98423.31;4824306;29;20234;-89
2022/06/21 01:25:29;;;;;;;6.23;2.90;;;;;;;22.29;60.06;98416.19;4823664;29;20197;-89
2022/06/21 01:27:56;;;;;;;5.73;3.23;;;;;;;22.30;59.59;98415.19;4792298;29;20281;-89
2022/06/21 01:30:27;;;;;;;5.13;2.70;;;;;;;22.16;60.44;98415.88;4815296;29;20197;-88
2022/06/21 01:32:56;;;;;;;7.07;2.40;;;;;;;22.03;61.34;98421.75;4813211;29;20246;-89
2022/06/21 01:35:36;;;;;;;3.37;2.27;;;;;;;21.99;61.76;98429.25;4805819;29;20707;-89
2022/06/21 01:38:04;;;;;;;4.90;2.77;;;;;;;22.00;61.45;98424.75;4811662;29;20331;-89
2022/06/21 01:40:35;;;;;;;10.90;2.57;;;;;;;21.96;60.88;98418.91;4814085;29;20219;-90
2022/06/21 01:43:08;;;;;;;4.87;2.50;;;;;;;21.88;61.19;98412.78;4790771;29;20187;-89
2022/06/21 01:45:41;;;;;;;6.63;3.43;;;;;;;21.73;62.00;98409.09;4806100;29;20178;-89
2022/06/21 01:48:21;;;;;;;9.47;2.83;;;;;;;21.71;61.87;98413.75;4820261;29;20711;-89
2022/06/21 01:50:50;;;;;;;6.70;2.63;;;;;;;21.58;62.75;98408.94;4801679;29;20629;-89
2022/06/21 01:53:19;;;;;;;8.20;2.63;;;;;;;21.55;62.56;98413.75;4790893;29;20543;-89
2022/06/21 01:55:50;;;;;;;5.67;3.07;;;;;;;21.61;62.29;98413.09;4805908;29;20187;-89
2022/06/21 01:58:21;;;;;;;5.80;2.90;;;;;;;21.63;62.22;98411.09;4809441;29;20254;-89
2022/06/21 02:01:00;;;;;;;5.03;2.50;;;;;;;21.58;62.41;98418.78;4807596;29;20554;-89
2022/06/21 02:03:33;;;;;;;4.53;2.63;;;;;;;21.56;62.49;98426.09;4809094;29;20179;-89
2022/06/21 02:06:05;;;;;;;4.57;2.00;;;;;;;21.48;63.52;98415.44;4823466;29;20205;-89
2022/06/21 02:08:41;;;;;;;2.87;1.73;;;;;;;21.48;63.88;98413.63;4808748;29;20195;-88
2022/06/21 02:11:14;;;;;;;5.60;2.20;;;;;;;21.46;64.39;98417.44;4792919;29;20569;-89
2022/06/21 02:13:48;;;;;;;4.60;2.03;;;;;;;21.27;64.62;98407.94;4809817;29;20630;-89
2022/06/21 02:16:20;;;;;;;4.70;2.27;;;;;;;21.37;63.74;98411.28;4809146;29;20188;-89
2022/06/21 02:18:53;;;;;;;5.27;2.60;;;;;;;21.35;63.53;98415.94;4823745;29;20645;-88
2022/06/21 02:21:41;;;;;;;4.53;2.20;;;;;;;21.25;64.23;98423.28;4794433;29;20539;-89
2022/06/21 02:24:12;;;;;;;6.50;2.47;;;;;;;21.24;64.60;98422.44;4814764;29;20188;-89
2022/06/21 02:26:38;;;;;;;5.43;2.70;;;;;;;21.27;64.24;98427.44;4825113;29;20281;-89
2022/06/21 02:29:04;;;;;;;3.80;2.00;;;;;;;21.28;64.00;98422.91;4810447;29;20189;-88
2022/06/21 02:31:30;;;;;;;4.07;2.27;;;;;;;21.23;63.98;98428.75;4810376;29;20286;-88
2022/06/21 02:34:01;;;;;;;4.17;1.57;;;;;;;21.24;63.84;98422.44;4809114;29;20192;-88
2022/06/21 02:36:32;;;;;;;5.30;2.00;;;;;;;21.26;64.37;98430.25;4792587;29;20186;-88
2022/06/21 02:39:02;;;;;;;4.73;2.63;;;;;;;21.27;64.44;98438.09;4802278;29;20550;-89
2022/06/21 02:41:37;;;;;;;3.17;1.67;;;;;;;21.19;64.52;98439.91;4818930;29;20174;-88
2022/06/21 02:44:43;;;;;;;5.40;1.73;;;;;;;21.06;65.18;98439.53;4825149;29;20180;-88
2022/06/21 02:47:14;;;;;;;3.37;1.57;;;;;;;21.01;65.50;98442.69;4824290;29;20206;-88
2022/06/21 02:49:54;;;;;;;4.53;1.70;;;;;;;21.01;65.68;98444.50;4822788;29;20182;-89
2022/06/21 02:52:36;;;;;;;3.23;1.40;;;;;;;21.05;65.59;98453.81;4809621;29;20258;-88
2022/06/21 02:55:22;;;;;;;2.77;1.50;;;;;;;20.93;66.19;98461.31;4809354;29;20188;-89
2022/06/21 02:57:55;;;;;;;4.03;1.97;;;;;;;20.89;66.96;98459.94;4792170;29;20209;-88
2022/06/21 03:00:23;;;;;;;3.13;1.60;;;;;;;20.80;67.23;98455.59;4792159;29;20197;-88
2022/06/21 03:02:49;;;;;;;3.13;2.13;;;;;;;20.64;67.64;98455.53;4808568;29;20604;-88
2022/06/21 03:05:19;;;;;;;3.23;1.60;;;;;;;20.75;67.32;98448.06;4808009;29;20254;-88
2022/06/21 03:11:07;;;;;;;3.10;1.57;;;;;;;21.07;65.65;98443.91;4667479;29;20269;-89
2022/06/21 03:13:34;;;;;;;3.63;1.53;;;;;;;21.09;65.29;98440.06;4824055;29;20221;-88
2022/06/21 03:16:10;;;;;;;3.07;1.90;;;;;;;21.10;65.05;98430.22;4825148;29;20214;-89
2022/06/21 03:18:58;;;;;;;4.63;1.87;;;;;;;21.10;64.76;98428.41;4824095;29;20252;-89
2022/06/21 03:21:32;;;;;;;3.77;2.23;;;;;;;21.11;64.00;98426.56;4824146;29;20189;-88
2022/06/21 03:24:01;;;;;;;4.67;2.07;;;;;;;21.11;63.48;98431.91;4825973;29;20225;-89
2022/06/21 03:26:28;;;;;;;2.77;1.50;;;;;;;21.18;63.17;98441.72;4809044;29;20210;-88
2022/06/21 03:28:54;;;;;;;2.83;1.70;;;;;;;21.26;63.29;98427.59;4816172;29;20204;-88
2022/06/21 03:31:42;;;;;;;3.73;2.07;;;;;;;21.28;63.43;98423.75;4807490;29;20646;-88
2022/06/21 03:34:13;;;;;;;3.27;2.10;;;;;;;21.30;63.07;98411.09;4807423;29;20558;-88
2022/06/21 03:36:39;;;;;;;6.93;1.83;;;;;;;21.34;62.84;98409.78;4807768;29;20174;-88
2022/06/21 03:39:10;;;;;;;2.47;1.60;;;;;;;21.36;62.99;98418.44;4808399;29;20183;-89
2022/06/21 03:41:44;;;;;;;3.60;2.00;;;;;;;21.43;62.74;98415.94;4811942;29;20617;-89
2022/06/21 03:44:31;;;;;;;3.40;1.80;;;;;;;21.32;63.65;98413.59;4825218;29;20696;-89
2022/06/21 03:47:02;;;;;;;2.70;1.67;;;;;;;21.48;62.89;98413.63;4824354;29;20292;-89
2022/06/21 03:49:56;;;;;;;3.67;2.00;;;;;;;21.53;62.79;98405.94;4823846;29;20171;-89
2022/06/21 03:52:42;;;;;;;3.40;1.77;;;;;;;21.48;63.55;98402.09;4810966;29;20217;-88
2022/06/21 03:55:41;;;;;;;2.93;1.80;;;;;;;21.49;63.87;98407.25;4810427;29;20193;-89
2022/06/21 03:58:15;;;;;;;2.73;1.83;;;;;;;21.32;63.67;98403.78;4808328;29;20254;-89
2022/06/21 04:01:07;;;;;;;2.67;1.67;;;;;;;21.28;63.65;98413.09;4807209;29;20645;-89
2022/06/21 04:03:46;;;;;;;3.30;1.77;;;;;;;21.26;64.00;98404.44;4809805;29;20175;-88
2022/06/21 04:06:37;;;;;;;3.50;1.87;;;;;;;21.18;63.44;98407.09;4825423;29;20174;-88
2022/06/21 04:09:09;;;;;;;3.27;2.20;;;;;;;21.33;63.67;98401.94;4817388;29;20211;-88
2022/06/21 04:11:42;;;;;;;4.03;1.87;;;;;;;21.40;63.97;98401.13;4808346;29;20205;-89
2022/06/21 04:14:23;;;;;;;3.87;1.87;;;;;;;21.51;64.16;98391.94;4823954;29;20653;-88
2022/06/21 04:16:59;;;;;;;5.53;2.87;;;;;;;21.64;63.65;98399.44;4821947;29;20590;-88
2022/06/21 04:19:42;;;;;;;4.57;1.93;;;;;;;21.75;64.04;98401.78;4822683;29;20216;-89
2022/06/21 04:22:45;;;;;;;5.73;2.20;;;;;;;21.68;64.16;98393.59;4822527;29;20178;-87
2022/06/21 04:25:33;;;;;;;3.57;2.20;;;;;;;21.81;62.62;98406.41;4803999;29;20205;-88
2022/06/21 04:28:06;;;;;;;3.80;2.30;;;;;;;21.87;63.84;98400.44;4806523;29;20199;-88
2022/06/21 04:30:51;;;;;;;3.83;2.13;;;;;;;21.84;63.04;98401.56;4807749;29;20195;-89
2022/06/21 04:33:34;;;;;;;3.23;1.63;;;;;;;21.99;63.70;98396.41;4806641;29;20190;-88
2022/06/21 04:36:08;;;;;;;3.23;1.73;;;;;;;22.09;61.16;98397.03;4806535;29;20190;-88
2022/06/21 04:39:23;;;;;;;2.83;1.77;;;;;;;22.07;60.94;98395.53;4814749;29;20198;-88
2022/06/21 04:42:12;;;;;;;3.57;2.10;;;;;;;22.22;62.16;98396.53;4796811;29;20217;-88
2022/06/21 04:44:55;;;;;;;6.23;2.27;;;;;;;22.25;61.11;98385.50;4824973;29;20174;-88
2022/06/21 04:47:32;;;;;;;4.43;2.00;;;;;;;22.47;61.14;98388.25;4806879;29;20208;-88
2022/06/21 04:50:13;;;;;;;3.97;1.87;;;;;;;22.51;60.52;98391.41;4823374;29;20248;-88
2022/06/21 04:52:50;;;;;;;3.20;2.13;;;;;;;22.55;59.60;98396.22;4808957;29;20183;-88
2022/06/21 04:55:18;;;;;;;1.90;1.33;;;;;;;22.74;58.32;98394.16;4821561;29;20174;-88
2022/06/21 04:57:46;;;;;;;3.33;1.90;;;;;;;22.72;59.06;98394.31;4806511;29;20193;-88
2022/06/21 05:00:20;;;;;;;3.27;1.53;;;;;;;22.71;57.17;98387.31;4807167;29;20194;-88
2022/06/21 05:02:48;;;;;;;4.40;1.87;;;;;;;22.79;57.61;98395.31;4817902;29;20189;-88
2022/06/21 05:05:19;;;;;;;5.60;1.87;;;;;;;22.81;57.28;98390.59;4806187;29;20190;-89
2022/06/21 05:07:52;;;;;;;3.23;1.70;;;;;;;22.74;56.43;98386.97;4810691;29;20703;-89
2022/06/21 05:10:36;;;;;;;2.83;1.63;;;;;;;23.05;56.42;98378.94;4810309;29;20287;-89
2022/06/21 05:13:25;;;;;;;3.73;1.67;;;;;;;23.21;56.15;98392.19;4780061;29;20187;-90
2022/06/21 05:15:55;;;;;;;2.23;1.37;;;;;;;23.34;55.62;98379.06;4777511;29;20274;-90
2022/06/21 05:19:06;;;;;;;3.30;1.80;;;;;;;23.43;54.81;98382.50;4793026;29;20531;-91
2022/06/21 05:21:40;;;;;;;2.90;1.33;;;;;;;23.61;53.41;98383.84;4794548;29;20202;-89
2022/06/21 05:24:09;;;;;;;2.73;1.53;;;;;;;23.89;52.44;98384.09;4781944;29;20273;-90
2022/06/21 05:26:56;;;;;;;3.20;1.70;;;;;;;24.07;51.78;98389.09;4815079;29;20669;-89
2022/06/21 05:29:38;;;;;;;3.13;1.60;;;;;;;24.12;50.77;98386.72;4801179;29;20597;-91
2022/06/21 05:32:21;;;;;;;2.60;1.30;;;;;;;24.39;51.19;98389.59;4775693;30;20199;-91
2022/06/21 05:35:07;;;;;;;3.83;1.70;;;;;;;24.68;49.69;98394.09;4786822;29;20263;-91
2022/06/21 05:41:37;;;;;;;2.53;1.47;;;;;;;25.16;48.49;98383.72;4795720;29;20182;-90
2022/06/21 05:44:27;;;;;;;2.10;1.13;;;;;;;25.45;47.73;98383.56;4736507;30;20296;-89
2022/06/21 05:47:08;;;;;;;3.33;2.10;;;;;;;25.45;47.71;98383.56;4721802;30;20220;-90
2022/06/21 05:50:08;;;;;;;;;;;;;;;;;;;;;
2022/06/21 05:56:35;;;;;;;;;;;;;;;;;;;;;
2022/06/21 06:00:06;;;;;;;2.67;1.37;;;;;;;25.93;45.47;98393.50;4747762;30;20184;-90
2022/06/21 06:03:23;;;;;;;;;;;;;;;;;;;;;
2022/06/21 06:06:39;;;;;;;;;;;;;;;;;;;;;
2022/06/21 06:09:32;;;;;;;2.67;1.33;;;;;;;26.48;43.44;98405.25;4786168;29;20199;-89
2022/06/21 06:26:15;;;;;;;2.28;1.20;;;;;;;27.62;42.67;98393.63;4712214;30;20277;-90
2022/06/21 06:28:52;;;;;;;1.55;0.95;;;;;;;27.77;41.60;98378.91;4698904;30;20681;-91
2022/06/21 06:31:52;;;;;;;2.30;1.00;;;;;;;28.06;40.04;98384.94;4703553;30;20280;-90
2022/06/21 06:34:42;;;;;;;1.80;1.10;;;;;;;28.22;40.45;98384.47;4715482;30;20293;-90
2022/06/21 06:37:36;;;;;;;;;;;;;;;;;;;;;
2022/06/21 06:43:31;;;;;;;3.10;1.50;;;;;;;29.25;39.36;98368.09;4747408;29;20189;-90
2022/06/21 06:46:11;;;;;;;3.10;1.33;;;;;;;29.50;37.70;98378.94;4844762;29;20688;-90
2022/06/21 06:48:39;;;;;;;2.03;1.27;;;;;;;29.74;37.53;98384.31;4829298;29;20204;-89
2022/06/21 06:51:56;;;;;;;1.63;1.00;;;;;;;29.71;37.46;98387.50;4826180;29;20669;-91
2022/06/21 06:55:16;;;;;;;;;;;;;;;;;;;;;
2022/06/21 06:58:08;;;;;;;2.45;1.38;;;;;;;29.91;37.47;98383.81;4787963;30;20666;-90
2022/06/21 07:01:19;;;;;;;;;;;;;;;;;;;;;
2022/06/21 07:03:57;;;;;;;2.30;1.15;;;;;;;30.10;37.44;98377.38;4788221;30;20187;-91
2022/06/21 07:07:13;;;;;;;2.15;1.20;;;;;;;30.31;37.75;98374.25;4784091;29;20202;-89
2022/06/21 07:10:02;;;;;;;2.70;0.90;;;;;;;30.35;36.02;98370.03;4747213;30;20220;-90
2022/06/21 07:12:47;;;;;;;2.55;1.35;;;;;;;30.62;35.49;98368.72;4776534;30;20236;-90
2022/06/21 07:16:16;;;;;;;;;;;;;;;;;;;;;
2022/06/21 07:19:26;;;;;;;1.45;0.85;;;;;;;30.65;35.50;98370.16;4697574;30;20673;-90
2022/06/21 07:22:03;;;;;;;1.63;1.13;;;;;;;30.50;35.79;98367.84;4717978;30;20201;-90
2022/06/21 07:28:29;;;;;;;2.40;1.17;;;;;;;30.76;34.84;98361.28;4675664;30;20588;-92
2022/06/21 07:31:15;;;;;;;1.83;0.90;;;;;;;31.23;36.25;98362.31;4651719;30;20270;-92
2022/06/21 07:38:32;;;;;;;3.25;1.30;;;;;;;31.51;35.30;98366.06;4647212;30;20232;-90
2022/06/21 07:41:20;;;;;;;1.67;0.95;;;;;;;31.34;33.54;98361.53;4544797;31;20201;-91
2022/06/21 07:44:50;;;;;;;2.83;1.10;;;;;;;31.52;34.15;98361.47;4635126;30;20814;-90
2022/06/21 07:47:35;;;;;;;;;;;;;;;;;;;;;
2022/06/21 07:50:41;;;;;;;1.95;0.80;;;;;;;31.77;35.38;98356.66;4609792;31;20670;-91
2022/06/21 07:54:13;;;;;;;;;;;;;;;;;;;;;
2022/06/21 07:56:40;;;;;;;1.38;0.65;;;;;;;31.98;34.99;98358.78;4647976;30;20214;-90
2022/06/21 08:13:13;;;;;;;2.22;1.10;;;;;;;32.89;32.87;98355.34;4714912;30;20354;-91
2022/06/21 08:33:47;;;;;;;;;;;;;;;;;;;;;
2022/06/21 08:40:19;;;;;;;1.50;1.00;;;;;;;33.55;32.04;98362.00;4646217;30;20207;-92
2022/06/21 12:05:07;;;;;;;1.75;0.93;;;;;;;37.07;25.68;98221.91;5375055;23;20248;-91
2022/06/21 12:22:06;;;;;;;1.90;1.13;;;;;;;38.11;26.32;98195.47;4771145;29;20229;-89
2022/06/21 13:06:02;;;;;;;1.88;1.00;;;;;;;38.58;24.92;98151.16;5553491;24;20250;-90
2022/06/21 13:09:05;;;;;;;1.92;1.00;;;;;;;38.58;24.61;98158.53;4821018;29;20312;-93
2022/06/21 13:22:38;;;;;;;;;;;;;;;;;;;;;
2022/06/21 13:32:52;;;;;;;5.45;2.15;;;;;;;38.81;25.63;98151.56;4750758;30;20219;-92
2022/06/21 13:39:26;;;;;;;;;;;;;;;;;;;;;
2022/06/21 13:49:18;;;;;;;3.63;2.35;;;;;;;38.21;27.59;98133.59;4680919;30;20291;-93
2022/06/21 13:59:18;;;;;;;4.60;2.95;;;;;;;38.24;27.11;98124.78;4667711;30;20682;-93
2022/06/21 14:05:51;;;;;;;8.60;2.70;;;;;;;38.04;26.99;98140.25;4666943;30;20210;-91
2022/06/21 14:09:07;;;;;;;4.15;2.38;;;;;;;38.13;26.91;98143.22;4668837;30;20242;-92
2022/06/21 14:15:34;;;;;;;3.40;2.47;;;;;;;37.82;27.85;98131.53;4701231;30;20209;-90
2022/06/21 14:18:41;;;;;;;6.53;2.70;;;;;;;37.91;29.26;98129.91;4687351;30;20307;-91
2022/06/21 14:21:40;;;;;;;4.90;2.53;;;;;;;38.07;29.64;98122.44;4701971;30;20217;-90
2022/06/21 14:24:45;;;;;;;5.20;2.58;;;;;;;37.28;29.18;98125.13;4700804;30;20211;-92
2022/06/21 14:38:32;;;;;;;4.10;2.50;;;;;;;38.04;29.37;98112.03;4767540;30;20302;-93
2022/06/21 14:54:50;;;;;;;5.00;3.08;;;;;;;37.51;30.29;98113.63;4665734;30;20631;-91
2022/06/21 15:00:43;;;;;;;5.80;3.03;;;;;;;36.80;29.86;98108.22;4666791;30;20545;-90
2022/06/21 15:10:25;;;;;;;6.10;3.05;;;;;;;36.93;30.76;98107.66;4729542;30;20278;-90
2022/06/21 15:13:22;;;;;;;8.50;2.80;;;;;;;37.23;30.25;98106.00;4727388;30;20202;-90
2022/06/21 15:16:15;;;;;;;6.43;3.42;;;;;;;36.42;31.33;98099.72;4715404;30;20288;-92
2022/06/21 15:32:49;;;;;;;6.72;3.65;;;;;;;36.98;32.51;98117.00;4787504;29;20672;-93
2022/06/21 15:36:16;;;;;;;7.68;3.58;;;;;;;36.79;32.34;98117.50;4743160;30;20199;-92
2022/06/21 15:39:42;;;;;;;5.63;3.72;;;;;;;36.27;33.40;98131.34;4717531;30;20684;-90
2022/06/21 22:49:04;;;;;;;;;;;;;;;;;;;;;
2022/06/21 22:51:52;;;;;;;5.15;3.60;;;;;;;28.40;51.28;98287.59;4789075;29;20229;-96
2022/06/21 22:58:51;;;;;;;;;;;;;;;;;;;;;
2022/06/21 23:02:14;;;;;;;;;;;;;;;;;;;;;
2022/06/21 23:09:08;;;;;;;7.35;3.45;;;;;;;28.34;50.94;98281.19;4569030;31;20240;-95
2022/06/21 23:22:50;;;;;;;;;;;;;;;;;;;;;
2022/06/21 23:29:54;;;;;;;;;;;;;;;;;;;;;
2022/06/21 23:40:42;;;;;;;;;;;;;;;;;;;;;
2022/06/21 23:43:54;;;;;;;7.57;3.95;;;;;;;27.89;52.61;98274.03;4621182;31;20208;-95
2022/06/21 23:47:05;;;;;;;7.68;3.28;;;;;;;27.78;52.77;98275.53;4645838;30;20778;-95
2022/06/21 23:49:33;;;;;;;10.77;3.95;;;;;;;27.57;53.19;98277.66;4654631;30;20271;-94
2022/06/21 23:52:12;;;;;;;7.18;3.67;;;;;;;27.63;53.29;98266.84;4717829;30;20270;-94
2022/06/21 23:54:41;;;;;;;19.70;4.13;;;;;;;27.78;52.26;98278.22;4703855;30;20536;-94
2022/06/21 23:57:10;;;;;;;6.82;3.85;;;;;;;27.68;53.29;98271.59;4720318;30;20637;-94
2022/06/21 23:59:38;;;;;;;6.88;3.40;;;;;;;27.69;52.58;98284.03;4781175;30;20207;-94
